Time;durP1;ratioP1;P1;durP2;ratioP2;P2;SDS_P1;SDS_P2;PMS_P1;PMS_P2;Temp;Humidity;BMP_temperature;BMP_pressure;BME280_temperature;BME280_humidity;BME280_pressure;Samples;Min_cycle;Max_cycle;Signal;HPM_P1;HPM_P2
2023/07/24 00:02:04;;;;;;;;;;;21.10;99.90;;;;;;5048382;28;20476;-73
2023/07/24 00:04:33;;;;;;;;;;;21.00;99.90;;;;;;5049930;28;19931;-73
2023/07/24 00:07:01;;;;;;;;;;;21.00;99.90;;;;;;5050693;28;19929;-73
2023/07/24 00:09:29;;;;;;;;;;;21.00;99.90;;;;;;5051191;28;19986;-72
2023/07/24 00:11:57;;;;;;;;;;;21.00;99.90;;;;;;5045666;28;19928;-73
2023/07/24 00:14:25;;;;;;;;;;;20.90;99.90;;;;;;5054087;28;19920;-72
2023/07/24 00:16:53;;;;;;;;;;;20.90;99.90;;;;;;5045773;28;19927;-73
2023/07/24 00:19:21;;;;;;;;;;;20.90;99.90;;;;;;5047011;28;20338;-73
2023/07/24 00:21:50;;;;;;;;;;;20.90;99.90;;;;;;5050231;28;20175;-74
2023/07/24 00:24:17;;;;;;;;;;;21.00;99.90;;;;;;5053596;28;19962;-74
2023/07/24 00:26:45;;;;;;;;;;;21.00;99.90;;;;;;5049526;28;19920;-73
2023/07/24 00:29:13;;;;;;;;;;;20.90;99.90;;;;;;5049806;28;19927;-72
2023/07/24 00:31:41;;;;;;;;;;;20.90;99.90;;;;;;5049177;28;20015;-72
2023/07/24 00:34:09;;;;;;;;;;;20.90;99.90;;;;;;5050691;28;20085;-72
2023/07/24 00:36:36;;;;;;;;;;;20.90;99.90;;;;;;5046935;28;20406;-72
2023/07/24 00:39:05;;;;;;;;;;;20.90;99.90;;;;;;5049705;28;19936;-72
2023/07/24 00:41:33;;;;;;;;;;;20.90;99.90;;;;;;5046417;28;19927;-72
2023/07/24 00:44:01;;;;;;;;;;;20.90;99.90;;;;;;5049358;28;19952;-72
2023/07/24 00:46:32;;;;;;;;;;;20.90;99.90;;;;;;5052204;28;19920;-72
2023/07/24 00:49:01;;;;;;;;;;;20.90;99.90;;;;;;5051412;28;19933;-73
2023/07/24 00:51:29;;;;;;;;;;;20.90;99.90;;;;;;5042099;28;19921;-72
2023/07/24 00:53:57;;;;;;;;;;;20.90;99.90;;;;;;5047305;28;19931;-72
2023/07/24 00:56:26;;;;;;;;;;;20.90;99.90;;;;;;5051894;28;19921;-72
2023/07/24 00:58:55;;;;;;;;;;;20.90;99.90;;;;;;5052664;28;19925;-72
2023/07/24 01:01:24;;;;;;;0.60;0.40;;;20.90;99.90;;;;;;5046017;28;19971;-73
2023/07/24 01:03:53;;;;;;;0.60;0.50;;;20.90;99.90;;;;;;5050983;28;20220;-72
2023/07/24 01:06:20;;;;;;;0.60;0.40;;;20.90;99.90;;;;;;5050955;28;20663;-72
2023/07/24 01:08:48;;;;;;;0.93;0.40;;;20.90;99.90;;;;;;5046053;28;20233;-73
2023/07/24 01:11:21;;;;;;;0.70;0.60;;;20.90;99.90;;;;;;5046833;28;20212;-73
2023/07/24 01:13:57;;;;;;;0.70;0.40;;;20.90;99.90;;;;;;5049258;28;20567;-73
2023/07/24 01:16:30;;;;;;;0.60;0.50;;;20.90;99.90;;;;;;5050388;28;20223;-73
2023/07/24 01:19:01;;;;;;;0.70;0.50;;;20.90;99.90;;;;;;5050804;28;20282;-71
2023/07/24 01:21:39;;;;;;;0.93;0.50;;;20.90;99.90;;;;;;5048627;28;20622;-73
2023/07/24 01:24:19;;;;;;;0.50;0.40;;;20.90;99.90;;;;;;5049256;28;20205;-72
2023/07/24 01:26:48;;;;;;;0.70;0.68;;;20.90;99.90;;;;;;5048269;28;20201;-73
2023/07/24 01:29:16;;;;;;;1.20;0.47;;;20.80;99.90;;;;;;5047717;28;20254;-73
2023/07/24 01:31:44;;;;;;;0.50;0.40;;;20.90;99.90;;;;;;5049872;28;20205;-73
2023/07/24 01:34:12;;;;;;;0.60;0.60;;;20.90;99.90;;;;;;5050130;28;20203;-73
2023/07/24 01:36:40;;;;;;;0.63;0.45;;;20.90;99.90;;;;;;5049543;28;20221;-73
2023/07/24 01:39:09;;;;;;;0.70;0.60;;;20.90;99.90;;;;;;5050265;28;20228;-72
2023/07/24 01:41:37;;;;;;;0.68;0.57;;;20.90;99.90;;;;;;5048765;28;20217;-73
2023/07/24 01:44:07;;;;;;;0.60;0.50;;;20.80;99.90;;;;;;5047513;28;20578;-72
2023/07/24 01:46:35;;;;;;;0.60;0.50;;;20.90;99.90;;;;;;5051028;28;20213;-72
2023/07/24 01:49:03;;;;;;;0.63;0.50;;;21.00;99.90;;;;;;5048655;28;20229;-71
2023/07/24 01:51:32;;;;;;;0.60;0.50;;;20.90;99.90;;;;;;5043920;28;20210;-71
2023/07/24 01:54:00;;;;;;;0.75;0.50;;;20.90;99.90;;;;;;5049570;28;20201;-71
2023/07/24 01:56:28;;;;;;;0.68;0.65;;;20.90;99.90;;;;;;5045290;28;20688;-71
2023/07/24 01:58:56;;;;;;;0.73;0.40;;;20.90;99.90;;;;;;5044561;28;20235;-71
2023/07/24 02:01:25;;;;;;;0.60;0.40;;;20.80;99.90;;;;;;5040128;28;20212;-71
2023/07/24 02:03:53;;;;;;;0.70;0.70;;;21.00;99.90;;;;;;5049461;28;20205;-70
2023/07/24 02:06:21;;;;;;;0.70;0.60;;;21.00;99.90;;;;;;5045069;28;20219;-70
2023/07/24 02:08:51;;;;;;;0.80;0.60;;;20.90;99.90;;;;;;5046271;28;20230;-71
2023/07/24 02:11:19;;;;;;;0.60;0.40;;;20.90;99.90;;;;;;5038939;28;20201;-71
2023/07/24 02:13:47;;;;;;;0.93;0.70;;;21.00;99.90;;;;;;5032417;28;20197;-71
2023/07/24 02:16:15;;;;;;;0.60;0.52;;;21.00;99.90;;;;;;5037408;28;20339;-71
2023/07/24 02:18:45;;;;;;;0.60;0.50;;;20.90;99.90;;;;;;5037947;28;20228;-71
2023/07/24 02:21:13;;;;;;;0.65;0.40;;;20.80;99.90;;;;;;5047015;28;20205;-71
2023/07/24 02:23:40;;;;;;;1.25;0.60;;;20.80;99.90;;;;;;5032113;28;20217;-71
2023/07/24 02:26:08;;;;;;;0.60;0.40;;;20.70;99.90;;;;;;5031774;28;20680;-72
2023/07/24 02:28:36;;;;;;;0.57;0.45;;;20.80;99.90;;;;;;5032116;28;20221;-71
2023/07/24 02:31:04;;;;;;;0.50;0.40;;;20.80;99.90;;;;;;5032036;28;20210;-72
2023/07/24 02:33:32;;;;;;;0.73;0.63;;;20.70;99.90;;;;;;5031750;28;20205;-71
2023/07/24 02:36:02;;;;;;;1.38;0.52;;;20.70;99.90;;;;;;5037547;28;20202;-72
2023/07/24 02:38:29;;;;;;;0.50;0.40;;;20.60;99.90;;;;;;5032685;28;20614;-71
2023/07/24 02:40:58;;;;;;;3.30;0.55;;;20.50;99.90;;;;;;5031938;28;20232;-72
2023/07/24 02:43:26;;;;;;;0.60;0.60;;;20.50;99.90;;;;;;5031316;28;20205;-71
2023/07/24 02:45:54;;;;;;;0.60;0.40;;;20.50;99.90;;;;;;5031640;28;20634;-71
2023/07/24 02:48:22;;;;;;;0.50;0.38;;;20.50;99.90;;;;;;5033814;28;20298;-72
2023/07/24 02:50:50;;;;;;;2.17;0.75;;;20.40;99.90;;;;;;5045231;28;20196;-72
2023/07/24 02:53:19;;;;;;;1.35;0.80;;;20.40;99.90;;;;;;5033631;28;20926;-72
2023/07/24 02:55:47;;;;;;;0.60;0.50;;;20.40;99.90;;;;;;5032187;28;20209;-72
2023/07/24 02:58:15;;;;;;;0.60;0.52;;;20.40;99.90;;;;;;5031855;28;20872;-73
2023/07/24 03:00:54;;;;;;;0.60;0.40;;;20.30;99.90;;;;;;5037397;28;20231;-72
2023/07/24 03:03:22;;;;;;;0.70;0.50;;;20.30;99.90;;;;;;5033731;28;20236;-72
2023/07/24 03:05:50;;;;;;;0.60;0.40;;;20.20;99.90;;;;;;5031260;28;20214;-72
2023/07/24 03:08:20;;;;;;;1.23;0.40;;;20.20;99.90;;;;;;5031159;28;20224;-72
2023/07/24 03:10:48;;;;;;;0.70;0.50;;;20.10;99.90;;;;;;5038359;28;20208;-72
2023/07/24 03:13:15;;;;;;;0.60;0.40;;;20.20;99.90;;;;;;5049764;28;20209;-72
2023/07/24 03:15:43;;;;;;;0.70;0.52;;;20.10;99.90;;;;;;5043202;28;20238;-72
2023/07/24 03:18:11;;;;;;;0.50;0.38;;;20.10;99.90;;;;;;5047244;28;20240;-72
2023/07/24 03:20:39;;;;;;;1.02;0.57;;;20.10;99.90;;;;;;5043971;28;20299;-72
2023/07/24 03:23:07;;;;;;;0.63;0.50;;;20.10;99.90;;;;;;5046228;28;20586;-72
2023/07/24 03:25:36;;;;;;;0.73;0.73;;;20.10;99.90;;;;;;5047724;28;20278;-71
2023/07/24 03:28:04;;;;;;;0.60;0.40;;;20.00;99.90;;;;;;5043323;28;20228;-71
2023/07/24 03:30:32;;;;;;;0.60;0.40;;;20.00;99.90;;;;;;5048135;28;20209;-70
2023/07/24 03:33:02;;;;;;;0.77;0.50;;;19.90;99.90;;;;;;5043841;28;20205;-72
2023/07/24 03:35:30;;;;;;;0.90;0.75;;;19.90;99.90;;;;;;5045315;28;20193;-73
2023/07/24 03:37:58;;;;;;;0.60;0.40;;;19.90;99.90;;;;;;5044237;28;20228;-71
2023/07/24 03:40:26;;;;;;;0.52;0.38;;;19.90;99.90;;;;;;5045754;28;20208;-71
2023/07/24 03:42:55;;;;;;;0.60;0.40;;;19.90;99.90;;;;;;5043432;28;20211;-70
2023/07/24 03:45:23;;;;;;;0.80;0.45;;;19.70;99.90;;;;;;5044642;28;20211;-70
2023/07/24 03:47:51;;;;;;;0.60;0.40;;;19.70;99.90;;;;;;5046680;28;20245;-70
2023/07/24 03:50:19;;;;;;;0.80;0.50;;;19.50;99.90;;;;;;5048893;28;20232;-69
2023/07/24 03:52:47;;;;;;;0.60;0.40;;;19.60;99.90;;;;;;5038483;28;20208;-70
2023/07/24 03:55:15;;;;;;;0.63;0.50;;;19.60;99.90;;;;;;5047910;28;20594;-70
2023/07/24 03:57:43;;;;;;;0.73;0.40;;;19.50;99.90;;;;;;5046706;28;20231;-70
2023/07/24 04:00:13;;;;;;;0.70;0.50;;;19.50;99.90;;;;;;5042208;28;20207;-69
2023/07/24 04:02:42;;;;;;;1.10;0.82;;;19.50;99.90;;;;;;5046598;28;20215;-70
2023/07/24 04:05:10;;;;;;;0.70;0.50;;;19.40;99.90;;;;;;5041102;28;20199;-70
2023/07/24 04:07:38;;;;;;;0.60;0.40;;;19.40;99.90;;;;;;5045418;28;20227;-70
2023/07/24 04:10:07;;;;;;;0.70;0.40;;;19.40;99.90;;;;;;5050290;28;20246;-70
2023/07/24 04:12:35;;;;;;;0.60;0.40;;;19.40;99.90;;;;;;5049739;28;20212;-70
2023/07/24 04:15:03;;;;;;;0.50;0.40;;;19.50;99.90;;;;;;5030873;28;20262;-70
2023/07/24 04:17:33;;;;;;;0.70;0.60;;;19.40;99.90;;;;;;5032282;28;20255;-69
2023/07/24 04:20:01;;;;;;;0.70;0.47;;;19.40;99.90;;;;;;5036715;28;20339;-70
2023/07/24 04:22:28;;;;;;;1.00;0.75;;;19.40;99.90;;;;;;5034288;28;20729;-70
2023/07/24 04:24:56;;;;;;;0.50;0.30;;;19.40;99.90;;;;;;5036970;28;20216;-70
2023/07/24 04:27:24;;;;;;;0.60;0.40;;;19.40;99.90;;;;;;5034594;28;20236;-70
2023/07/24 04:29:52;;;;;;;0.73;0.50;;;19.40;99.90;;;;;;5036621;28;20199;-70
2023/07/24 04:32:20;;;;;;;0.60;0.40;;;19.40;99.90;;;;;;5031643;28;20691;-70
2023/07/24 04:34:54;;;;;;;0.68;0.47;;;19.50;99.90;;;;;;5034968;28;20211;-70
2023/07/24 04:37:22;;;;;;;0.57;0.45;;;19.40;99.90;;;;;;5035726;28;20216;-69
2023/07/24 04:39:50;;;;;;;0.90;0.50;;;19.50;99.90;;;;;;5035318;28;20224;-70
2023/07/24 04:42:18;;;;;;;0.60;0.50;;;19.50;99.90;;;;;;5037062;28;20200;-70
2023/07/24 04:44:45;;;;;;;0.73;0.50;;;19.50;99.90;;;;;;5038357;28;20666;-70
2023/07/24 04:47:13;;;;;;;0.70;0.52;;;19.60;99.90;;;;;;5037379;28;20302;-70
2023/07/24 04:49:41;;;;;;;1.83;0.57;;;19.60;99.90;;;;;;5041604;28;23894;-70
2023/07/24 04:52:10;;;;;;;0.63;0.52;;;19.60;99.90;;;;;;5039059;28;20690;-70
2023/07/24 04:54:38;;;;;;;0.85;0.70;;;19.70;99.90;;;;;;5037519;28;20682;-69
2023/07/24 04:57:07;;;;;;;0.60;0.40;;;19.80;99.90;;;;;;5038036;28;20225;-70
2023/07/24 04:59:34;;;;;;;1.15;0.68;;;19.80;99.90;;;;;;5039506;28;20231;-70
2023/07/24 05:02:02;;;;;;;0.80;0.50;;;19.70;99.90;;;;;;5039489;28;20211;-69
2023/07/24 05:04:30;;;;;;;0.70;0.57;;;19.90;99.90;;;;;;5037917;28;20212;-69
2023/07/24 05:06:59;;;;;;;0.82;0.82;;;19.80;99.90;;;;;;5036375;28;20216;-70
2023/07/24 05:09:28;;;;;;;0.60;0.40;;;19.90;99.90;;;;;;5037827;28;20220;-70
2023/07/24 05:11:56;;;;;;;1.00;0.80;;;19.90;99.90;;;;;;5039512;28;21181;-70
2023/07/24 05:14:24;;;;;;;0.60;0.50;;;19.90;99.90;;;;;;5037596;28;20215;-70
2023/07/24 05:16:52;;;;;;;0.88;0.63;;;19.90;99.90;;;;;;5035450;28;20208;-70
2023/07/24 05:19:20;;;;;;;0.73;0.60;;;20.00;99.90;;;;;;5037686;28;20219;-70
2023/07/24 05:21:48;;;;;;;3.00;1.50;;;20.00;99.90;;;;;;5037213;28;20204;-70
2023/07/24 05:24:16;;;;;;;1.67;0.60;;;19.90;99.90;;;;;;5039649;28;20208;-70
2023/07/24 05:26:45;;;;;;;4.07;0.90;;;20.00;99.90;;;;;;5038993;28;20690;-69
2023/07/24 05:29:13;;;;;;;0.70;0.63;;;19.90;99.90;;;;;;5037979;28;20215;-69
2023/07/24 05:31:42;;;;;;;0.80;0.75;;;19.90;99.90;;;;;;5039337;28;20277;-70
2023/07/24 05:34:10;;;;;;;0.68;0.50;;;20.00;99.90;;;;;;5040933;28;20220;-70
2023/07/24 05:36:38;;;;;;;0.80;0.60;;;20.00;99.90;;;;;;5041594;28;20223;-72
2023/07/24 05:39:06;;;;;;;0.70;0.60;;;20.00;99.90;;;;;;5047990;28;20627;-69
2023/07/24 05:41:34;;;;;;;1.00;0.80;;;20.10;99.90;;;;;;5050493;28;20211;-69
2023/07/24 05:44:03;;;;;;;0.70;0.60;;;20.20;99.90;;;;;;5049891;28;20200;-69
2023/07/24 05:46:31;;;;;;;0.60;0.50;;;20.20;99.90;;;;;;5049376;28;20258;-68
2023/07/24 05:49:01;;;;;;;0.60;0.40;;;20.30;99.90;;;;;;5048715;28;20240;-69
2023/07/24 05:51:29;;;;;;;0.65;0.60;;;20.40;99.90;;;;;;5048233;28;20204;-69
2023/07/24 05:53:57;;;;;;;0.70;0.50;;;20.50;99.90;;;;;;5047011;28;20204;-69
2023/07/24 05:56:25;;;;;;;0.57;0.45;;;20.60;99.90;;;;;;5039556;28;20205;-69
2023/07/24 05:58:52;;;;;;;0.63;0.50;;;20.60;99.90;;;;;;5049188;28;20682;-69
2023/07/24 06:01:22;;;;;;;0.70;0.60;;;20.60;99.90;;;;;;5044318;28;20272;-70
2023/07/24 06:03:50;;;;;;;0.70;0.68;;;20.70;99.90;;;;;;5048115;28;20710;-70
2023/07/24 06:06:19;;;;;;;0.60;0.47;;;20.70;99.90;;;;;;5045838;28;20251;-70
2023/07/24 06:08:47;;;;;;;1.23;0.60;;;20.70;99.90;;;;;;5043433;28;20233;-68
2023/07/24 06:11:15;;;;;;;0.65;0.50;;;20.70;99.90;;;;;;5041073;28;20206;-68
2023/07/24 06:13:44;;;;;;;0.70;0.65;;;20.70;99.90;;;;;;5058111;28;20207;-68
2023/07/24 06:16:13;;;;;;;1.30;1.20;;;20.70;99.90;;;;;;5038150;28;20204;-69
2023/07/24 06:18:43;;;;;;;0.70;0.70;;;20.80;99.90;;;;;;5032466;28;20592;-68
2023/07/24 06:21:12;;;;;;;0.70;0.68;;;20.80;99.90;;;;;;5040644;28;20221;-68
2023/07/24 06:23:40;;;;;;;0.60;0.60;;;20.80;99.90;;;;;;5032016;28;20217;-68
2023/07/24 06:26:08;;;;;;;0.80;0.65;;;20.80;99.90;;;;;;5032007;28;20579;-69
2023/07/24 06:28:36;;;;;;;0.60;0.40;;;20.90;99.90;;;;;;5032974;28;20230;-69
2023/07/24 06:31:04;;;;;;;0.60;0.40;;;20.90;99.90;;;;;;5044526;28;20685;-68
2023/07/24 06:33:32;;;;;;;0.50;0.40;;;20.90;99.90;;;;;;5032045;28;20194;-68
2023/07/24 06:36:01;;;;;;;0.60;0.40;;;21.10;99.90;;;;;;5051800;28;20209;-68
2023/07/24 06:38:29;;;;;;;0.57;0.40;;;21.20;99.90;;;;;;5034203;28;20225;-69
2023/07/24 06:40:57;;;;;;;0.60;0.40;;;21.20;99.90;;;;;;5049311;28;20236;-68
2023/07/24 06:43:25;;;;;;;0.50;0.40;;;21.30;99.90;;;;;;5048144;28;20202;-68
2023/07/24 06:45:53;;;;;;;0.60;0.47;;;21.40;99.90;;;;;;5038267;28;20222;-68
2023/07/24 06:48:20;;;;;;;0.82;0.50;;;21.40;99.90;;;;;;5029143;28;20237;-68
2023/07/24 06:50:49;;;;;;;0.50;0.35;;;21.50;99.90;;;;;;5030959;28;20202;-68
2023/07/24 06:53:18;;;;;;;1.25;0.60;;;21.40;99.90;;;;;;5034862;28;20210;-68
2023/07/24 06:55:46;;;;;;;0.60;0.50;;;21.50;99.90;;;;;;5030603;28;20226;-68
2023/07/24 06:58:14;;;;;;;0.80;0.65;;;21.60;99.90;;;;;;5030919;28;20226;-68
2023/07/24 07:00:41;;;;;;;0.60;0.50;;;21.80;99.90;;;;;;5030637;28;20221;-68
2023/07/24 07:03:09;;;;;;;0.98;0.98;;;22.00;99.90;;;;;;5031011;28;20201;-68
2023/07/24 07:05:37;;;;;;;0.60;0.40;;;22.10;99.90;;;;;;5030414;28;20213;-68
2023/07/24 07:08:05;;;;;;;0.60;0.40;;;22.20;99.90;;;;;;5030482;28;20236;-68
2023/07/24 07:10:35;;;;;;;0.98;0.60;;;22.30;99.90;;;;;;5041702;28;20212;-68
2023/07/24 07:13:02;;;;;;;0.60;0.40;;;22.40;99.90;;;;;;5050566;28;20682;-68
2023/07/24 07:15:30;;;;;;;0.50;0.40;;;22.40;99.90;;;;;;5032713;28;20202;-69
2023/07/24 07:17:58;;;;;;;0.60;0.47;;;22.50;99.90;;;;;;5030246;28;20221;-68
2023/07/24 07:20:26;;;;;;;0.60;0.50;;;22.60;99.90;;;;;;5030297;28;20225;-68
2023/07/24 07:22:54;;;;;;;0.50;0.30;;;22.70;99.90;;;;;;5030371;28;20213;-68
2023/07/24 07:25:22;;;;;;;0.60;0.40;;;22.70;99.90;;;;;;5030299;28;20208;-68
2023/07/24 07:27:52;;;;;;;0.50;0.40;;;22.80;99.90;;;;;;5030304;28;20295;-68
2023/07/24 07:30:19;;;;;;;0.60;0.50;;;22.80;99.90;;;;;;5031787;28;20205;-69
2023/07/24 07:32:48;;;;;;;0.70;0.65;;;22.90;99.90;;;;;;5038536;28;20213;-68
2023/07/24 07:35:16;;;;;;;1.00;0.70;;;22.80;99.90;;;;;;5030347;28;20622;-68
2023/07/24 07:37:44;;;;;;;0.85;0.50;;;22.70;99.90;;;;;;5030046;28;20234;-68
2023/07/24 07:40:13;;;;;;;0.60;0.47;;;22.70;99.90;;;;;;5038138;28;20688;-68
2023/07/24 07:42:41;;;;;;;0.88;0.70;;;22.70;99.90;;;;;;5049929;28;20663;-68
2023/07/24 07:45:13;;;;;;;0.50;0.40;;;22.70;99.90;;;;;;5036676;28;20206;-68
2023/07/24 07:47:40;;;;;;;1.07;0.87;;;22.80;99.90;;;;;;4994147;28;1030958;-68
2023/07/24 07:50:09;;;;;;;0.60;0.47;;;22.90;99.90;;;;;;5030985;28;20211;-68
2023/07/24 07:52:37;;;;;;;2.10;0.60;;;23.00;99.90;;;;;;5031017;28;20209;-68
2023/07/24 07:55:06;;;;;;;0.60;0.50;;;23.10;99.90;;;;;;5039218;28;20207;-68
2023/07/24 07:57:35;;;;;;;0.90;0.70;;;23.10;99.90;;;;;;5030788;28;20253;-68
2023/07/24 08:00:04;;;;;;;0.60;0.40;;;23.00;99.90;;;;;;5030499;28;20211;-68
2023/07/24 08:02:33;;;;;;;0.70;0.65;;;23.00;99.90;;;;;;5030867;28;20259;-68
2023/07/24 08:05:01;;;;;;;0.88;0.88;;;23.00;99.90;;;;;;5030767;28;20206;-68
2023/07/24 08:07:44;;;;;;;0.60;0.40;;;23.00;99.90;;;;;;5030710;28;20322;-68
2023/07/24 08:10:14;;;;;;;0.60;0.45;;;23.00;99.90;;;;;;5038722;28;20667;-68
2023/07/24 08:12:43;;;;;;;1.05;0.60;;;22.90;99.90;;;;;;5045787;28;20201;-68
2023/07/24 08:15:11;;;;;;;0.73;0.68;;;23.00;99.90;;;;;;5030914;28;20237;-68
2023/07/24 08:17:41;;;;;;;0.60;0.45;;;23.10;99.90;;;;;;5030787;28;20252;-68
2023/07/24 08:20:09;;;;;;;0.70;0.60;;;23.10;99.90;;;;;;5032121;28;20272;-68
2023/07/24 08:22:37;;;;;;;0.60;0.50;;;23.00;99.90;;;;;;5034517;28;20217;-68
2023/07/24 08:25:07;;;;;;;0.65;0.52;;;23.00;99.90;;;;;;5034596;28;20206;-68
2023/07/24 08:27:35;;;;;;;1.15;1.02;;;23.10;99.90;;;;;;5038408;28;20566;-68
2023/07/24 08:30:21;;;;;;;1.05;0.95;;;23.20;99.90;;;;;;5049046;28;20209;-68
2023/07/24 08:32:51;;;;;;;0.60;0.60;;;23.20;99.90;;;;;;5034220;28;20271;-68
2023/07/24 08:35:19;;;;;;;0.68;0.52;;;23.30;99.90;;;;;;5034089;28;20668;-69
2023/07/24 08:37:47;;;;;;;0.60;0.40;;;23.50;99.90;;;;;;5034740;28;20229;-68
2023/07/24 08:40:16;;;;;;;1.15;0.60;;;23.60;99.90;;;;;;5050195;28;20214;-68
2023/07/24 08:42:44;;;;;;;0.60;0.40;;;23.70;99.90;;;;;;5051793;28;20225;-67
2023/07/24 08:45:14;;;;;;;0.70;0.60;;;23.80;99.90;;;;;;5035211;28;20206;-68
2023/07/24 08:47:44;;;;;;;0.90;0.60;;;23.80;99.90;;;;;;5033758;28;20234;-69
2023/07/24 08:50:15;;;;;;;0.80;0.60;;;24.00;99.90;;;;;;5034497;28;20218;-69
2023/07/24 08:52:44;;;;;;;0.70;0.47;;;24.20;99.90;;;;;;5034097;28;20214;-68
2023/07/24 08:55:13;;;;;;;0.60;0.60;;;24.30;99.90;;;;;;5033995;28;20205;-68
2023/07/24 08:57:41;;;;;;;0.73;0.40;;;24.40;99.90;;;;;;5033857;28;20705;-68
2023/07/24 09:00:09;;;;;;;0.70;0.60;;;24.60;99.90;;;;;;5042002;28;20230;-68
2023/07/24 09:02:37;;;;;;;0.70;0.60;;;24.90;99.90;;;;;;5033872;28;20226;-68
2023/07/24 09:05:06;;;;;;;0.65;0.60;;;25.00;99.90;;;;;;5033804;28;20307;-68
2023/07/24 09:07:35;;;;;;;0.65;0.47;;;25.00;99.90;;;;;;5033459;28;20232;-67
2023/07/24 09:10:04;;;;;;;0.60;0.50;;;25.00;99.90;;;;;;5040684;28;20289;-68
2023/07/24 09:12:32;;;;;;;0.60;0.50;;;24.90;99.90;;;;;;5047059;28;20676;-68
2023/07/24 09:15:03;;;;;;;0.75;0.50;;;25.00;99.90;;;;;;5033392;28;20217;-68
2023/07/24 09:17:33;;;;;;;0.60;0.45;;;25.10;99.90;;;;;;5033496;28;20227;-68
2023/07/24 09:20:03;;;;;;;0.70;0.60;;;25.10;99.90;;;;;;5033569;28;20613;-67
2023/07/24 09:22:31;;;;;;;0.60;0.50;;;25.20;99.90;;;;;;5039024;28;20223;-69
2023/07/24 09:25:05;;;;;;;0.60;0.50;;;25.40;99.90;;;;;;5033143;28;20218;-68
2023/07/24 09:27:33;;;;;;;0.80;0.70;;;25.20;99.90;;;;;;5033159;28;20227;-68
2023/07/24 09:30:02;;;;;;;0.70;0.40;;;25.10;99.90;;;;;;5033273;28;20664;-68
2023/07/24 09:32:31;;;;;;;0.60;0.40;;;24.90;99.90;;;;;;5039126;28;20213;-68
2023/07/24 09:34:59;;;;;;;0.65;0.60;;;24.70;99.90;;;;;;5035039;28;20207;-67
2023/07/24 09:37:29;;;;;;;0.70;0.50;;;24.70;99.90;;;;;;5032816;28;20223;-68
2023/07/24 09:39:57;;;;;;;0.60;0.57;;;24.60;99.90;;;;;;5039224;28;20222;-68
2023/07/24 09:42:33;;;;;;;0.65;0.50;;;24.70;99.90;;;;;;5046728;28;20321;-68
2023/07/24 09:45:01;;;;;;;0.60;0.50;;;24.90;99.90;;;;;;5051862;28;20676;-68
2023/07/24 09:47:29;;;;;;;0.50;0.40;;;25.20;99.90;;;;;;5038545;28;20282;-67
2023/07/24 09:50:17;;;;;;;0.70;0.63;;;25.70;99.90;;;;;;5040698;28;20285;-68
2023/07/24 09:52:48;;;;;;;0.52;0.40;;;25.80;99.90;;;;;;5032794;28;20215;-68
2023/07/24 09:55:22;;;;;;;0.50;0.40;;;25.80;99.90;;;;;;5032620;28;20211;-68
2023/07/24 09:57:55;;;;;;;1.50;1.05;;;25.70;99.90;;;;;;5032631;28;20607;-67
2023/07/24 10:00:23;;;;;;;0.90;0.60;;;25.60;99.90;;;;;;5032865;28;20211;-68
2023/07/24 10:02:51;;;;;;;0.60;0.60;;;25.70;99.90;;;;;;5032513;28;20227;-68
2023/07/24 10:05:19;;;;;;;0.68;0.50;;;25.90;99.90;;;;;;5032653;28;20211;-67
2023/07/24 10:07:48;;;;;;;0.60;0.40;;;26.00;99.90;;;;;;5032558;28;20227;-68
2023/07/24 10:10:16;;;;;;;0.80;0.60;;;26.00;99.90;;;;;;5032790;28;20593;-67
2023/07/24 10:12:45;;;;;;;0.75;0.60;;;25.90;99.90;;;;;;5034733;28;20199;-68
2023/07/24 10:15:15;;;;;;;1.50;0.73;;;25.50;99.90;;;;;;5052395;28;20207;-66
2023/07/24 10:17:43;;;;;;;0.60;0.50;;;25.30;99.90;;;;;;5038236;28;20701;-68
2023/07/24 10:20:13;;;;;;;0.77;0.57;;;25.10;99.90;;;;;;5033131;28;20265;-68
2023/07/24 10:22:42;;;;;;;1.00;0.90;;;25.10;99.90;;;;;;5036686;28;20748;-69
2023/07/24 10:25:11;;;;;;;;;;;25.30;99.90;;;;;;5041293;28;20300;-68
2023/07/24 10:27:40;;;;;;;;;;;25.30;99.90;;;;;;5032847;28;19928;-68
2023/07/24 10:30:08;;;;;;;;;;;25.30;99.90;;;;;;5032799;28;19921;-68
2023/07/24 10:32:47;;;;;;;;;;;25.40;99.90;;;;;;5033500;28;19920;-68
2023/07/24 10:35:20;;;;;;;;;;;25.40;99.90;;;;;;5032725;28;19928;-67
2023/07/24 10:37:48;;;;;;;;;;;25.60;99.90;;;;;;5032645;28;19921;-68
2023/07/24 10:40:20;;;;;;;;;;;25.70;99.90;;;;;;5032664;28;19925;-68
2023/07/24 10:42:59;;;;;;;;;;;25.80;99.90;;;;;;5042701;28;19921;-68
2023/07/24 10:45:26;;;;;;;;;;;25.80;99.90;;;;;;5052352;28;20371;-67
2023/07/24 10:47:55;;;;;;;;;;;25.80;99.90;;;;;;5044286;28;19925;-69
2023/07/24 10:50:23;;;;;;;;;;;25.90;99.90;;;;;;5040600;28;20410;-68
2023/07/24 10:52:51;;;;;;;;;;;25.90;99.90;;;;;;5032467;28;20338;-68
2023/07/24 10:55:19;;;;;;;;;;;25.90;99.90;;;;;;5032031;28;19921;-68
2023/07/24 10:57:47;;;;;;;;;;;26.10;99.90;;;;;;5032275;28;19920;-69
2023/07/24 11:00:15;;;;;;;;;;;26.20;99.90;;;;;;5032075;28;19925;-69
2023/07/24 11:02:43;;;;;;;;;;;26.20;99.90;;;;;;5032389;28;19920;-68
2023/07/24 11:05:12;;;;;;;;;;;26.20;99.90;;;;;;5040383;28;19932;-68
2023/07/24 11:07:40;;;;;;;;;;;26.10;99.90;;;;;;5031995;28;19921;-68
2023/07/24 11:10:15;;;;;;;;;;;26.10;99.90;;;;;;5032023;28;19921;-69
2023/07/24 11:12:48;;;;;;;;;;;26.00;99.90;;;;;;5034632;28;20300;-69
2023/07/24 11:15:16;;;;;;;;;;;25.80;99.90;;;;;;5051432;28;19928;-69
2023/07/24 11:17:43;;;;;;;;;;;25.70;99.90;;;;;;5037169;28;19928;-68
2023/07/24 11:20:13;;;;;;;;;;;25.70;99.90;;;;;;5031684;28;20403;-69
2023/07/24 11:22:42;;;;;;;;;;;25.60;99.90;;;;;;5031889;28;19921;-68
2023/07/24 11:25:10;;;;;;;;;;;25.50;99.90;;;;;;5031742;28;19921;-69
2023/07/24 11:27:39;;;;;;;;;;;25.40;99.90;;;;;;5031442;28;19975;-69
2023/07/24 11:30:07;;;;;;;;;;;25.30;99.90;;;;;;5031744;28;19920;-69
2023/07/24 11:32:35;;;;;;;;;;;25.40;99.90;;;;;;5033104;28;19971;-68
2023/07/24 11:35:03;;;;;;;;;;;25.60;99.90;;;;;;5031425;28;20011;-69
2023/07/24 11:37:33;;;;;;;;;;;25.70;99.90;;;;;;5031401;28;19925;-69
2023/07/24 11:40:04;;;;;;;;;;;25.80;99.90;;;;;;5031581;28;19921;-69
2023/07/24 11:42:32;;;;;;;;;;;25.80;99.90;;;;;;5034524;28;19924;-69
2023/07/24 11:45:01;;;;;;;;;;;25.80;99.90;;;;;;5051082;28;19928;-68
2023/07/24 11:47:30;;;;;;;;;;;25.90;99.90;;;;;;5046723;28;19921;-69
2023/07/24 11:49:58;;;;;;;;;;;26.00;99.90;;;;;;5031603;28;19921;-67
2023/07/24 11:52:26;;;;;;;;;;;26.10;99.90;;;;;;5031798;28;20016;-67
2023/07/24 11:55:00;;;;;;;;;;;26.10;99.90;;;;;;5030619;28;19928;-68
2023/07/24 11:57:29;;;;;;;;;;;26.40;99.90;;;;;;5033689;28;19920;-68
2023/07/24 11:59:57;;;;;;;;;;;26.70;99.90;;;;;;5042785;28;19928;-67
2023/07/24 12:02:28;;;;;;;;;;;26.70;99.90;;;;;;5043223;28;19921;-67
2023/07/24 12:04:57;;;;;;;;;;;26.60;99.90;;;;;;5035453;28;19928;-68
2023/07/24 12:07:31;;;;;;;;;;;26.30;99.90;;;;;;5031150;28;19944;-67
2023/07/24 12:10:00;;;;;;;;;;;26.00;99.90;;;;;;5031386;28;20284;-68
2023/07/24 12:12:37;;;;;;;;;;;26.00;99.90;;;;;;5031596;28;19948;-68
2023/07/24 12:15:05;;;;;;;;;;;26.20;99.90;;;;;;5039820;28;19929;-68
2023/07/24 12:17:33;;;;;;;;;;;26.70;99.90;;;;;;5039421;28;19925;-68
2023/07/24 12:20:02;;;;;;;;;;;27.50;99.90;;;;;;5031359;28;19921;-68
2023/07/24 12:22:29;;;;;;;;;;;27.80;99.90;;;;;;5031277;28;20339;-69
2023/07/24 12:24:58;;;;;;;;;;;27.90;99.90;;;;;;5030027;28;19921;-68
2023/07/24 12:27:27;;;;;;;;;;;28.10;99.90;;;;;;5030700;28;19921;-68
2023/07/24 12:29:55;;;;;;;;;;;28.40;99.90;;;;;;5031166;28;19975;-68
2023/07/24 12:32:22;;;;;;;;;;;28.60;99.90;;;;;;5031039;28;20012;-68
2023/07/24 12:34:51;;;;;;;;;;;28.50;99.10;;;;;;5042257;28;19943;-69
2023/07/24 12:37:19;;;;;;;;;;;28.40;99.90;;;;;;5030440;28;19928;-68
2023/07/24 12:39:48;;;;;;;;;;;28.40;99.60;;;;;;5031268;28;19921;-68
2023/07/24 12:42:15;;;;;;;;;;;28.30;99.70;;;;;;5030817;28;19921;-68
2023/07/24 12:44:45;;;;;;;;;;;28.00;99.80;;;;;;5049283;28;19921;-68
2023/07/24 12:47:13;;;;;;;;;;;28.00;99.90;;;;;;5048955;28;19925;-67
2023/07/24 12:49:41;;;;;;;;;;;28.10;99.80;;;;;;5031757;28;19921;-68
2023/07/24 12:52:08;;;;;;;;;;;27.80;99.90;;;;;;5030807;28;19929;-70
2023/07/24 12:54:36;;;;;;;;;;;27.40;99.90;;;;;;5031045;28;19979;-68
2023/07/24 12:57:26;;;;;;;;;;;27.00;99.90;;;;;;5031037;28;20312;-68
2023/07/24 12:59:55;;;;;;;;;;;26.90;99.90;;;;;;5031096;28;19960;-67
2023/07/24 13:02:22;;;;;;;;;;;26.60;99.90;;;;;;5038934;28;20634;-68
2023/07/24 13:04:50;;;;;;;;;;;26.30;99.90;;;;;;5039141;28;19967;-68
2023/07/24 13:07:18;;;;;;;;;;;26.30;99.90;;;;;;5033596;28;19925;-68
2023/07/24 13:09:46;;;;;;;;;;;26.20;99.90;;;;;;5035638;28;19921;-68
2023/07/24 13:12:13;;;;;;;;;;;26.50;99.90;;;;;;5034336;28;19987;-68
2023/07/24 13:14:42;;;;;;;;;;;27.30;99.90;;;;;;5052096;28;19927;-68
2023/07/24 13:17:11;;;;;;;;;;;28.00;99.90;;;;;;5053692;28;19974;-69
2023/07/24 13:19:39;;;;;;;;;;;28.50;99.90;;;;;;5054284;28;19925;-68
2023/07/24 13:22:07;;;;;;;;;;;28.90;99.50;;;;;;5037739;28;19925;-68